createdAt,value
2019-04-23T00:03:45.769Z,12.71
2019-04-23T00:06:40.637Z,12.57
2019-04-23T00:08:59.234Z,12.76
2019-04-23T00:11:21.312Z,12.64
2019-04-23T00:13:48.413Z,12.70
2019-04-23T00:16:24.862Z,12.65
2019-04-23T00:19:02.435Z,12.58
2019-04-23T00:21:40.507Z,12.64
2019-04-23T00:24:38.424Z,12.47
2019-04-23T00:27:11.069Z,12.57
2019-04-23T00:29:27.971Z,12.62
2019-04-23T00:32:05.075Z,12.54
2019-04-23T00:34:37.064Z,12.54
2019-04-23T00:37:11.269Z,12.59
2019-04-23T00:39:34.324Z,12.39
2019-04-23T00:42:06.667Z,12.56
2019-04-23T00:44:40.116Z,12.43
2019-04-23T00:47:06.759Z,12.38
2019-04-23T00:49:40.306Z,12.45
2019-04-23T00:52:14.606Z,12.39
2019-04-23T00:54:39.226Z,12.29
2019-04-23T00:59:48.307Z,12.30
2019-04-23T01:02:10.912Z,12.25
2019-04-23T01:04:40.412Z,12.28
2019-04-23T01:07:13.189Z,12.17
2019-04-23T01:09:52.525Z,12.16
2019-04-23T01:12:23.721Z,12.17
2019-04-23T01:14:48.240Z,12.22
2019-04-23T01:17:30.542Z,12.13
2019-04-23T01:20:01.933Z,12.18
2019-04-23T01:22:12.995Z,12.01
2019-04-23T01:24:50.858Z,12.11
2019-04-23T01:27:51.371Z,12.10
2019-04-23T01:30:13.873Z,12.08
2019-04-23T01:32:48.286Z,12.04
2019-04-23T01:35:20.383Z,12.07
2019-04-23T01:37:49.306Z,11.92
2019-04-23T01:40:27.416Z,12.00
2019-04-23T01:42:50.855Z,11.89
2019-04-23T01:45:31.580Z,12.04
2019-04-23T01:47:55.189Z,11.97
2019-04-23T01:50:31.171Z,11.97
2019-04-23T01:53:00.810Z,11.90
2019-04-23T01:55:26.040Z,11.81
2019-04-23T01:58:07.077Z,11.84
2019-04-23T02:00:32.586Z,11.90
2019-04-23T02:05:38.547Z,11.78
2019-04-23T02:08:06.535Z,11.68
2019-04-23T02:10:51.272Z,11.72
2019-04-23T02:15:36.332Z,11.75
2019-04-23T02:18:10.400Z,11.73
2019-04-23T02:20:46.117Z,11.68
2019-04-23T02:23:21.338Z,11.62
2019-04-23T02:28:34.001Z,11.71
2019-04-23T02:33:34.522Z,11.65
2019-04-23T02:38:31.264Z,11.63
2019-04-23T02:41:03.843Z,11.54
2019-04-23T02:46:02.294Z,11.67
2019-04-23T02:50:57.802Z,11.58
2019-04-23T02:58:36.101Z,11.47
2019-04-23T03:01:19.493Z,11.44
2019-04-23T03:03:57.127Z,11.49
2019-04-23T03:06:16.670Z,11.44
2019-04-23T03:11:16.905Z,11.55
2019-04-23T03:19:18.807Z,11.32
2019-04-23T03:22:03.408Z,11.18
2019-04-23T03:24:43.719Z,11.53
2019-04-23T03:29:52.288Z,11.42
2019-04-23T03:32:45.922Z,11.34
2019-04-23T03:37:30.915Z,11.37
2019-04-23T03:45:03.182Z,11.29
2019-04-23T03:50:04.545Z,11.23
2019-04-23T03:52:34.232Z,11.20
2019-04-23T03:54:45.536Z,11.09
2019-04-23T04:00:13.150Z,11.11
2019-04-23T04:04:49.767Z,11.03
2019-04-23T04:10:05.294Z,11.04
2019-04-23T04:12:28.662Z,11.03
2019-04-23T04:17:32.663Z,10.89
2019-04-23T04:20:07.488Z,10.95
2019-04-23T04:22:39.919Z,10.97
2019-04-23T04:30:21.196Z,11.04
2019-04-23T04:32:56.603Z,10.96
2019-04-23T04:37:55.988Z,10.93
2019-04-23T04:40:29.368Z,10.88
2019-04-23T04:47:49.283Z,11.06
2019-04-23T04:50:18.799Z,10.98
2019-04-23T04:53:00.962Z,11.01
2019-04-23T04:55:32.176Z,11.03
2019-04-23T04:57:58.551Z,10.99
2019-04-23T05:00:34.898Z,11.09
2019-04-23T05:05:55.352Z,11.11
2019-04-23T05:08:13.851Z,11.17
2019-04-23T05:13:22.235Z,11.46
2019-04-23T05:15:36.964Z,12.26
2019-04-23T05:18:39.950Z,13.07
2019-04-23T05:20:58.858Z,13.96
2019-04-23T05:23:52.439Z,14.67
2019-04-23T05:28:55.883Z,14.32
2019-04-23T05:31:18.678Z,14.48
2019-04-23T05:33:47.662Z,14.97
2019-04-23T05:36:33.891Z,14.58
2019-04-23T05:39:07.621Z,14.60
2019-04-23T05:41:23.486Z,15.03
2019-04-23T05:43:57.266Z,14.96
2019-04-23T05:46:27.783Z,14.73
2019-04-23T05:49:09.410Z,15.90
2019-04-23T05:54:12.830Z,15.32
2019-04-23T06:04:27.117Z,15.02
2019-04-23T06:09:13.961Z,13.07
2019-04-23T06:24:22.164Z,12.99
2019-04-23T06:29:25.617Z,13.15
2019-04-23T06:31:50.783Z,13.99
2019-04-23T06:34:27.222Z,17.05
2019-04-23T06:36:51.156Z,17.26
2019-04-23T06:39:26.437Z,17.61
2019-04-23T06:44:31.892Z,18.42
2019-04-23T06:47:05.729Z,19.11
2019-04-23T06:49:30.466Z,17.40
2019-04-23T06:52:10.321Z,18.68
2019-04-23T06:54:36.118Z,18.04
2019-04-23T06:57:10.560Z,19.25
2019-04-23T06:59:30.674Z,20.83
2019-04-23T07:02:06.684Z,18.30
2019-04-23T07:04:34.540Z,18.14
2019-04-23T07:07:34.777Z,19.88
2019-04-23T07:09:26.024Z,19.33
2019-04-23T07:12:05.329Z,19.69
2019-04-23T07:14:47.672Z,20.73
2019-04-23T07:17:02.664Z,20.21
2019-04-23T07:19:39.363Z,20.72
2019-04-23T07:22:12.983Z,20.60
2019-04-23T07:25:03.107Z,17.11
2019-04-23T07:27:24.602Z,19.04
2019-04-23T07:30:03.647Z,16.99
2019-04-23T07:32:30.650Z,16.94
2019-04-23T07:37:32.002Z,16.38
2019-04-23T07:40:24.513Z,17.81
2019-04-23T07:42:54.175Z,16.57
2019-04-23T07:45:37.859Z,16.30
2019-04-23T07:50:46.227Z,16.78
2019-04-23T07:53:17.175Z,16.66
2019-04-23T08:08:12.176Z,16.93
2019-04-23T08:11:30.931Z,16.54
2019-04-23T08:13:59.063Z,17.47
2019-04-23T08:21:27.575Z,16.92
2019-04-23T08:26:52.044Z,16.71
2019-04-23T08:29:24.982Z,17.21
2019-04-23T08:32:00.633Z,17.24
2019-04-23T08:34:38.923Z,16.93
2019-04-23T08:37:05.153Z,16.90
2019-04-23T08:39:32.387Z,17.78
2019-04-23T08:42:13.963Z,17.33
2019-04-23T08:44:56.919Z,18.21
2019-04-23T08:47:26.242Z,18.06
2019-04-23T08:49:50.591Z,18.06
2019-04-23T08:52:24.784Z,17.53
2019-04-23T08:55:10.171Z,17.49
2019-04-23T08:59:58.770Z,17.97
2019-04-23T09:05:00.787Z,18.65
2019-04-23T09:07:28.050Z,18.09
2019-04-23T09:10:09.701Z,18.26
2019-04-23T09:13:00.867Z,18.37
2019-04-23T09:15:01.863Z,18.43
2019-04-23T09:17:34.309Z,18.13
2019-04-23T09:22:34.792Z,17.93
2019-04-23T09:25:06.581Z,17.81
2019-04-23T09:27:33.303Z,17.99
2019-04-23T09:30:09.464Z,18.28
2019-04-23T09:32:40.209Z,18.37
2019-04-23T09:35:30.801Z,18.61
2019-04-23T09:38:28.186Z,17.88
2019-04-23T09:44:21.620Z,18.82
2019-04-23T09:46:44.063Z,19.01
2019-04-23T09:49:15.013Z,17.90
2019-04-23T09:51:56.235Z,18.75
2019-04-23T10:01:49.851Z,19.50
2019-04-23T10:04:19.419Z,19.30
2019-04-23T10:06:38.981Z,19.43
2019-04-23T10:09:10.681Z,19.02
2019-04-23T10:11:40.599Z,19.11
2019-04-23T10:14:10.579Z,19.25
2019-04-23T10:16:41.153Z,19.37
2019-04-23T10:19:12.149Z,19.56
2019-04-23T10:21:41.867Z,19.52
2019-04-23T10:24:10.820Z,19.39
2019-04-23T10:26:39.988Z,19.46
2019-04-23T10:29:13.866Z,19.82
2019-04-23T10:31:43.871Z,19.56
2019-04-23T10:34:12.847Z,19.44
2019-04-23T10:36:42.332Z,19.30
2019-04-23T10:39:19.565Z,20.16
2019-04-23T10:41:46.249Z,19.94
2019-04-23T10:44:29.130Z,20.41
2019-04-23T10:47:44.783Z,19.53
2019-04-23T10:55:58.887Z,20.46
2019-04-23T10:58:26.690Z,19.73
2019-04-23T11:00:59.817Z,19.74
2019-04-23T11:03:42.465Z,19.22
2019-04-23T11:05:59.054Z,19.47
2019-04-23T11:08:30.945Z,19.45
2019-04-23T11:11:03.572Z,20.43
2019-04-23T11:18:45.284Z,20.38
2019-04-23T11:23:35.932Z,20.62
2019-04-23T11:31:23.718Z,20.81
2019-04-23T11:33:46.489Z,20.71
2019-04-23T11:36:43.726Z,19.86
2019-04-23T11:41:35.082Z,20.84
2019-04-23T11:43:53.384Z,20.51
2019-04-23T11:46:39.894Z,20.69
2019-04-23T11:49:20.633Z,20.43
2019-04-23T11:54:07.279Z,20.43
2019-04-23T11:58:55.107Z,20.65
2019-04-23T12:04:48.226Z,19.88
2019-04-23T12:09:51.696Z,20.86
2019-04-23T12:12:18.473Z,19.85
2019-04-23T12:14:51.065Z,19.93
2019-04-23T12:20:06.048Z,20.91
2019-04-23T12:27:31.189Z,20.11
2019-04-23T12:30:18.969Z,20.10
2019-04-23T12:37:44.785Z,20.91
2019-04-23T12:40:30.909Z,21.09
2019-04-23T12:52:55.606Z,20.78
2019-04-23T12:55:41.931Z,21.20
2019-04-23T12:57:50.694Z,20.98
2019-04-23T13:00:35.860Z,21.74
2019-04-23T13:02:56.859Z,21.19
2019-04-23T13:05:31.294Z,20.98
2019-04-23T13:08:02.095Z,21.04
2019-04-23T13:10:33.771Z,20.87
2019-04-23T13:15:36.959Z,20.52
2019-04-23T13:18:26.971Z,20.53
2019-04-23T13:20:39.970Z,20.96
2019-04-23T13:23:16.496Z,21.50
2019-04-23T13:25:56.148Z,21.29
2019-04-23T13:28:29.559Z,21.08
2019-04-23T13:31:08.397Z,20.65
2019-04-23T13:36:08.360Z,21.12
2019-04-23T13:41:11.639Z,21.19
2019-04-23T13:46:17.933Z,21.18
2019-04-23T13:48:30.150Z,20.96
2019-04-23T13:51:18.605Z,20.99
2019-04-23T13:53:49.720Z,20.95
2019-04-23T13:56:09.184Z,21.08
2019-04-23T13:58:43.341Z,20.98
2019-04-23T14:03:45.452Z,21.21
2019-04-23T14:06:29.424Z,21.31
2019-04-23T14:11:19.740Z,20.88
2019-04-23T14:18:56.187Z,21.59
2019-04-23T14:24:03.466Z,20.67
2019-04-23T14:28:55.503Z,21.11
2019-04-23T14:31:31.798Z,21.06
2019-04-23T14:34:04.978Z,20.91
2019-04-23T14:36:39.632Z,20.95
2019-04-23T14:39:06.541Z,21.26
2019-04-23T14:41:37.740Z,20.74
2019-04-23T14:44:36.671Z,21.20
2019-04-23T14:47:11.978Z,20.93
2019-04-23T14:49:45.602Z,20.73
2019-04-23T14:52:12.181Z,21.03
2019-04-23T14:59:45.175Z,20.86
2019-04-23T15:02:19.542Z,21.19
2019-04-23T15:04:51.152Z,22.99
2019-04-23T15:07:23.014Z,22.26
2019-04-23T15:10:07.000Z,22.25
2019-04-23T15:12:42.974Z,22.45
2019-04-23T15:15:00.302Z,23.10
2019-04-23T15:20:17.200Z,22.16
2019-04-23T15:25:26.238Z,21.08
2019-04-23T15:29:51.141Z,21.15
2019-04-23T15:32:43.924Z,20.94
2019-04-23T15:35:18.136Z,21.22
2019-04-23T15:40:21.276Z,20.63
2019-04-23T15:42:44.407Z,20.71
2019-04-23T15:45:11.293Z,20.80
2019-04-23T15:47:54.030Z,20.62
2019-04-23T15:50:17.567Z,20.14
2019-04-23T15:53:01.386Z,20.13
2019-04-23T15:55:49.380Z,19.84
2019-04-23T15:58:14.537Z,19.87
2019-04-23T16:00:51.380Z,19.91
2019-04-23T16:02:53.232Z,19.84
2019-04-23T16:05:23.283Z,19.58
2019-04-23T16:08:30.966Z,19.42
2019-04-23T16:11:15.648Z,19.51
2019-04-23T16:13:42.509Z,19.44
2019-04-23T16:16:07.697Z,19.37
2019-04-23T16:21:27.425Z,19.26
2019-04-23T16:23:53.812Z,19.22
2019-04-23T16:26:45.022Z,19.22
2019-04-23T16:29:25.464Z,19.19
2019-04-23T16:31:39.921Z,18.97
2019-04-23T16:34:20.597Z,19.18
2019-04-23T16:39:10.709Z,19.01
2019-04-23T16:41:51.866Z,19.12
2019-04-23T16:47:10.541Z,18.88
2019-04-23T16:50:03.157Z,18.83
2019-04-23T16:52:09.589Z,18.79
2019-04-23T16:54:42.236Z,18.81
2019-04-23T16:57:33.237Z,18.82
2019-04-23T16:59:49.465Z,18.71
2019-04-23T17:02:18.411Z,18.74
2019-04-23T17:08:00.207Z,18.69
2019-04-23T17:10:19.155Z,18.58
2019-04-23T17:13:32.995Z,18.58
2019-04-23T17:16:06.792Z,18.53
2019-04-23T17:18:31.890Z,18.57
2019-04-23T17:21:07.425Z,18.48
2019-04-23T17:23:40.162Z,18.45
2019-04-23T17:28:41.080Z,18.33
2019-04-23T17:31:28.103Z,18.27
2019-04-23T17:33:41.724Z,18.14
2019-04-23T17:36:32.063Z,18.24
2019-04-23T17:39:28.720Z,18.18
2019-04-23T17:42:19.605Z,18.18
2019-04-23T17:44:51.499Z,18.12
2019-04-23T17:47:37.546Z,18.10
2019-04-23T17:50:28.809Z,18.06
2019-04-23T17:52:51.183Z,18.06
2019-04-23T17:55:16.272Z,18.00
2019-04-23T17:58:03.468Z,18.00
2019-04-23T18:02:59.925Z,17.90
2019-04-23T18:05:40.694Z,17.87
2019-04-23T18:07:59.403Z,17.72
2019-04-23T18:10:38.670Z,17.67
2019-04-23T18:13:05.224Z,17.65
2019-04-23T18:15:41.890Z,17.64
2019-04-23T18:18:10.061Z,17.57
2019-04-23T18:21:03.286Z,17.52
2019-04-23T18:24:27.337Z,17.51
2019-04-23T18:30:09.969Z,17.48
2019-04-23T18:38:18.615Z,17.38
2019-04-23T18:41:01.366Z,17.34
2019-04-23T18:43:29.547Z,17.27
2019-04-23T18:51:03.410Z,17.18
2019-04-23T18:58:54.604Z,17.11
2019-04-23T19:01:19.826Z,17.02
2019-04-23T19:06:41.318Z,17.03
2019-04-23T19:10:10.803Z,16.97
2019-04-23T19:12:39.462Z,16.95
2019-04-23T19:15:09.435Z,17.00
2019-04-23T19:20:37.661Z,16.79
2019-04-23T19:22:58.766Z,16.79
2019-04-23T19:28:07.569Z,16.68
2019-04-23T19:30:41.716Z,16.55
2019-04-23T19:33:25.346Z,16.54
2019-04-23T19:40:52.011Z,16.35
2019-04-23T19:43:21.030Z,16.24
2019-04-23T19:45:56.682Z,16.18
2019-04-23T19:56:03.717Z,15.99
2019-04-23T19:58:48.129Z,15.96
2019-04-23T20:03:41.423Z,15.85
2019-04-23T20:06:00.529Z,15.86
2019-04-23T20:08:49.444Z,15.75
2019-04-23T20:11:01.298Z,15.78
2019-04-23T20:13:38.947Z,15.77
2019-04-23T20:18:46.412Z,15.56
2019-04-23T20:21:12.832Z,15.56
2019-04-23T20:24:03.911Z,15.44
2019-04-23T20:26:23.408Z,15.48
2019-04-23T20:29:15.510Z,15.44
2019-04-23T20:33:00.578Z,15.36
2019-04-23T20:36:57.960Z,15.32
2019-04-23T20:44:47.486Z,15.17
2019-04-23T20:47:10.228Z,15.12
2019-04-23T20:52:34.057Z,15.00
2019-04-23T20:55:05.174Z,15.03
2019-04-23T21:00:16.958Z,14.97
2019-04-23T21:05:58.528Z,14.83
2019-04-23T21:08:33.211Z,14.79
2019-04-23T21:10:58.252Z,14.77
2019-04-23T21:16:01.197Z,14.71
2019-04-23T21:20:56.267Z,14.61
2019-04-23T21:23:38.741Z,14.45
2019-04-23T21:25:58.128Z,14.51
2019-04-23T21:31:16.088Z,14.39
2019-04-23T21:34:34.134Z,14.32
2019-04-23T21:37:35.665Z,14.22
2019-04-23T21:40:40.299Z,14.20
2019-04-23T21:43:01.450Z,14.14
2019-04-23T21:45:35.347Z,14.16
2019-04-23T21:50:37.392Z,14.01
2019-04-23T21:52:54.432Z,14.03
2019-04-23T21:55:39.067Z,13.91
2019-04-23T21:58:07.166Z,14.03
2019-04-23T22:00:53.520Z,13.96
2019-04-23T22:03:43.538Z,13.98
2019-04-23T22:06:01.808Z,14.00
2019-04-23T22:08:27.063Z,13.78
2019-04-23T22:11:24.557Z,13.78
2019-04-23T22:13:41.644Z,13.80
2019-04-23T22:16:05.915Z,13.80
2019-04-23T22:18:34.371Z,13.72
2019-04-23T22:21:15.654Z,13.61
2019-04-23T22:23:50.647Z,13.62
2019-04-23T22:29:14.373Z,13.62
2019-04-23T22:32:02.507Z,13.61
2019-04-23T22:37:03.548Z,13.75
2019-04-23T22:39:32.150Z,13.65
2019-04-23T22:44:39.935Z,13.75
2019-04-23T22:47:04.313Z,13.80
2019-04-23T22:49:41.766Z,13.74
2019-04-23T22:52:16.070Z,13.74
2019-04-23T22:54:51.353Z,13.71
2019-04-23T22:57:04.229Z,13.69
2019-04-23T22:59:57.472Z,13.72
2019-04-23T23:02:54.658Z,13.67
2019-04-23T23:07:56.247Z,13.50
2019-04-23T23:10:23.075Z,13.62
2019-04-23T23:13:01.977Z,13.67
2019-04-23T23:15:26.499Z,13.58
2019-04-23T23:18:02.631Z,13.57
2019-04-23T23:20:29.286Z,13.52
2019-04-23T23:23:06.374Z,13.52
2019-04-23T23:28:07.956Z,13.33
2019-04-23T23:30:38.719Z,13.32
2019-04-23T23:33:13.309Z,13.25
2019-04-23T23:35:54.060Z,13.34
2019-04-23T23:38:33.384Z,13.24
2019-04-23T23:41:07.733Z,13.26
2019-04-23T23:49:09.784Z,13.19
2019-04-23T23:51:21.595Z,13.15
2019-04-23T23:53:56.865Z,13.13
2019-04-23T23:56:29.839Z,13.04
2019-04-23T23:59:03.902Z,13.15
